createdAt,value
2023-04-14T00:01:27.574Z,1.30
2023-04-14T00:03:58.705Z,1.50
2023-04-14T00:06:29.678Z,2.30
2023-04-14T00:09:00.553Z,2.80
2023-04-14T00:11:31.629Z,1.70
2023-04-14T00:14:03.276Z,1.50
2023-04-14T00:16:34.552Z,1.30
2023-04-14T00:19:05.275Z,0.70
2023-04-14T00:21:36.702Z,1.40
2023-04-14T00:24:07.530Z,1.00
2023-04-14T00:26:38.104Z,1.90
2023-04-14T00:29:08.728Z,1.90
2023-04-14T00:31:39.792Z,1.40
2023-04-14T00:34:10.512Z,0.90
2023-04-14T00:36:41.232Z,1.50
2023-04-14T00:39:12.286Z,1.40
2023-04-14T00:41:43.350Z,1.20
2023-04-14T00:44:14.272Z,1.60
2023-04-14T00:46:45.264Z,1.00
2023-04-14T00:49:16.782Z,0.80
2023-04-14T00:51:49.130Z,2.50
2023-04-14T00:54:20.872Z,1.20
2023-04-14T00:56:52.936Z,1.30
2023-04-14T00:59:23.652Z,0.80
2023-04-14T01:01:55.058Z,0.70
2023-04-14T01:04:33.839Z,1.40
2023-04-14T01:07:12.023Z,1.10
2023-04-14T01:09:42.746Z,1.40
2023-04-14T01:12:22.286Z,0.90
2023-04-14T01:14:57.140Z,1.00
2023-04-14T01:17:33.993Z,1.10
2023-04-14T01:20:14.595Z,1.00
2023-04-14T01:22:51.000Z,0.70
2023-04-14T01:25:56.457Z,1.30
2023-04-14T01:28:43.653Z,1.00
2023-04-14T01:31:27.713Z,1.40
2023-04-14T01:34:05.112Z,1.50
2023-04-14T01:36:43.082Z,1.20
2023-04-14T01:39:20.715Z,0.80
2023-04-14T01:41:56.740Z,0.90
2023-04-14T01:44:30.555Z,2.20
2023-04-14T01:49:40.086Z,1.00
2023-04-14T01:52:14.643Z,1.30
2023-04-14T01:54:47.506Z,0.80
2023-04-14T01:57:22.752Z,1.30
2023-04-14T01:59:56.387Z,1.50
2023-04-14T02:02:29.117Z,1.30
2023-04-14T02:05:00.827Z,0.90
2023-04-14T02:07:34.669Z,1.80
2023-04-14T02:12:36.339Z,1.40
2023-04-14T02:15:13.683Z,0.60
2023-04-14T02:17:45.643Z,2.10
2023-04-14T02:20:17.541Z,1.80
2023-04-14T02:22:49.092Z,0.60
2023-04-14T02:25:19.867Z,1.00
2023-04-14T02:27:56.457Z,1.10
2023-04-14T02:30:31.641Z,1.00
2023-04-14T02:33:06.673Z,1.20
2023-04-14T02:35:44.217Z,1.20
2023-04-14T02:38:21.005Z,0.70
2023-04-14T02:40:52.023Z,0.90
2023-04-14T02:43:32.991Z,0.80
2023-04-14T02:46:06.210Z,1.00
2023-04-14T02:48:39.034Z,0.80
2023-04-14T02:51:12.598Z,1.20
2023-04-14T02:53:43.669Z,1.00
2023-04-14T02:56:14.948Z,1.40
2023-04-14T02:58:46.781Z,1.30
2023-04-14T03:01:20.838Z,0.70
2023-04-14T03:03:53.395Z,0.70
2023-04-14T03:06:26.501Z,1.80
2023-04-14T03:09:00.206Z,0.80
2023-04-14T03:11:33.253Z,0.70
2023-04-14T03:14:04.289Z,0.80
2023-04-14T03:16:36.253Z,1.00
2023-04-14T03:19:10.423Z,0.90
2023-04-14T03:21:42.384Z,0.60
2023-04-14T03:24:16.232Z,1.00
2023-04-14T03:29:21.649Z,1.00
2023-04-14T03:31:53.730Z,1.10
2023-04-14T03:34:26.065Z,1.30
2023-04-14T03:36:58.477Z,1.30
2023-04-14T03:39:34.501Z,0.80
2023-04-14T03:42:08.063Z,1.10
2023-04-14T03:47:10.718Z,1.50
2023-04-14T03:49:46.395Z,1.80
2023-04-14T03:52:20.950Z,1.10
2023-04-14T03:54:53.505Z,3.70
2023-04-14T03:57:24.851Z,0.60
2023-04-14T03:59:56.295Z,2.40
2023-04-14T04:02:28.626Z,0.90
2023-04-14T04:05:00.605Z,2.00
2023-04-14T04:07:33.430Z,1.30
2023-04-14T04:10:06.264Z,3.10
2023-04-14T04:12:39.921Z,27.10
2023-04-14T04:15:12.454Z,43.60
2023-04-14T04:17:43.802Z,51.80
2023-04-14T04:20:17.389Z,48.90
2023-04-14T04:22:52.026Z,58.10
2023-04-14T04:25:23.089Z,59.50
2023-04-14T04:27:54.275Z,61.40
2023-04-14T04:30:26.355Z,65.50
2023-04-14T04:32:57.121Z,60.50
2023-04-14T04:35:29.934Z,58.80
2023-04-14T04:38:01.981Z,47.30
2023-04-14T04:40:38.747Z,44.00
2023-04-14T04:43:09.417Z,48.10
2023-04-14T04:45:51.737Z,35.10
2023-04-14T04:48:22.372Z,39.30
2023-04-14T04:50:53.696Z,37.80
2023-04-14T04:53:24.452Z,36.80
2023-04-14T04:55:55.021Z,41.10
2023-04-14T04:58:25.651Z,37.00
2023-04-14T05:00:56.491Z,35.90
2023-04-14T05:03:27.509Z,32.50
2023-04-14T05:05:59.792Z,30.30
2023-04-14T05:08:30.452Z,24.20
2023-04-14T05:11:01.293Z,38.30
2023-04-14T05:13:32.990Z,32.30
2023-04-14T05:16:07.873Z,30.50
2023-04-14T05:18:38.950Z,23.30
2023-04-14T05:21:12.738Z,23.60
2023-04-14T05:23:44.950Z,32.30
2023-04-14T05:28:51.640Z,21.60
2023-04-14T05:31:22.550Z,20.00
2023-04-14T05:33:53.557Z,24.70
2023-04-14T05:36:24.247Z,24.90
2023-04-14T05:38:54.970Z,21.80
2023-04-14T05:41:25.727Z,19.40
2023-04-14T05:43:56.636Z,16.20
2023-04-14T05:46:27.509Z,21.10
2023-04-14T05:48:58.731Z,20.50
2023-04-14T05:51:32.574Z,14.80
2023-04-14T05:54:03.700Z,16.20
2023-04-14T05:56:35.145Z,16.60
2023-04-14T05:59:06.010Z,17.40
2023-04-14T06:01:36.857Z,18.40
2023-04-14T06:04:07.887Z,18.40
2023-04-14T06:06:39.412Z,17.90
2023-04-14T06:09:10.172Z,14.00
2023-04-14T06:11:41.119Z,14.90
2023-04-14T06:14:12.162Z,17.50
2023-04-14T06:16:43.029Z,13.70
2023-04-14T06:19:14.157Z,15.10
2023-04-14T06:21:45.606Z,12.50
2023-04-14T06:24:16.859Z,10.60
2023-04-14T06:26:48.118Z,14.20
2023-04-14T06:29:19.460Z,11.00
2023-04-14T06:31:52.062Z,11.50
2023-04-14T06:34:23.147Z,8.50
2023-04-14T06:36:54.224Z,13.30
2023-04-14T06:39:25.309Z,13.10
2023-04-14T06:41:56.877Z,10.70
2023-04-14T06:44:27.669Z,14.10
2023-04-14T06:46:59.425Z,9.20
2023-04-14T06:49:30.690Z,9.70
2023-04-14T06:52:01.732Z,7.20
2023-04-14T06:54:35.031Z,13.70
2023-04-14T06:57:06.182Z,10.70
2023-04-14T06:59:37.015Z,10.50
2023-04-14T07:02:08.385Z,10.00
2023-04-14T07:04:40.076Z,8.90
2023-04-14T07:07:11.707Z,8.30
2023-04-14T07:09:42.993Z,6.80
2023-04-14T07:12:18.006Z,8.50
2023-04-14T07:14:52.148Z,8.30
2023-04-14T07:17:23.079Z,8.00
2023-04-14T07:19:54.446Z,10.30
2023-04-14T07:22:25.223Z,6.60
2023-04-14T07:24:56.361Z,8.90
2023-04-14T07:27:28.920Z,7.60
2023-04-14T07:30:00.093Z,7.50
2023-04-14T07:32:31.330Z,7.30
2023-04-14T07:35:02.225Z,9.40
2023-04-14T07:37:33.230Z,7.00
2023-04-14T07:40:06.806Z,6.40
2023-04-14T07:42:37.790Z,4.50
2023-04-14T07:45:10.427Z,5.10
2023-04-14T07:47:42.270Z,6.90
2023-04-14T07:50:13.292Z,5.30
2023-04-14T07:52:44.617Z,6.90
2023-04-14T07:55:16.757Z,4.50
2023-04-14T07:57:47.794Z,5.70
2023-04-14T08:00:19.946Z,5.30
2023-04-14T08:02:51.282Z,6.10
2023-04-14T08:05:22.756Z,4.90
2023-04-14T08:07:54.067Z,4.80
2023-04-14T08:10:25.369Z,5.60
2023-04-14T08:12:56.112Z,4.30
2023-04-14T08:15:26.874Z,5.10
2023-04-14T08:17:57.606Z,4.90
2023-04-14T08:20:28.608Z,4.10
2023-04-14T08:22:59.895Z,5.30
2023-04-14T08:25:32.897Z,4.60
2023-04-14T08:28:03.548Z,5.10
2023-04-14T08:30:34.467Z,4.80
2023-04-14T08:33:05.412Z,5.80
2023-04-14T08:35:41.514Z,4.50
2023-04-14T08:38:13.031Z,3.60
2023-04-14T08:40:44.877Z,4.10
2023-04-14T08:43:15.969Z,6.40
2023-04-14T08:45:47.287Z,6.20
2023-04-14T08:48:21.324Z,5.50
2023-04-14T08:51:04.778Z,5.20
2023-04-14T08:53:42.943Z,5.60
2023-04-14T08:56:16.467Z,4.50
2023-04-14T08:58:47.703Z,7.10
2023-04-14T09:01:19.352Z,6.20
2023-04-14T09:03:51.508Z,6.10
2023-04-14T09:06:23.835Z,4.80
2023-04-14T09:08:55.572Z,5.20
2023-04-14T09:11:27.058Z,5.40
2023-04-14T09:13:59.926Z,5.00
2023-04-14T09:16:32.151Z,4.20
2023-04-14T09:19:06.947Z,4.50
2023-04-14T09:21:52.596Z,4.90
2023-04-14T09:24:31.216Z,4.70
2023-04-14T09:27:05.215Z,6.90
2023-04-14T09:29:36.640Z,4.80
2023-04-14T09:32:09.425Z,7.20
2023-04-14T09:34:53.934Z,5.40
2023-04-14T09:37:27.758Z,4.50
2023-04-14T09:39:58.622Z,5.50
2023-04-14T09:42:42.996Z,8.70
2023-04-14T09:45:14.492Z,4.70
2023-04-14T09:47:45.335Z,6.60
2023-04-14T09:50:16.147Z,5.10
2023-04-14T09:52:48.646Z,6.20
2023-04-14T09:55:19.917Z,4.40
2023-04-14T09:57:52.051Z,6.20
2023-04-14T10:00:24.880Z,3.50
2023-04-14T10:02:59.212Z,4.70
2023-04-14T10:05:34.579Z,5.50
2023-04-14T10:08:07.004Z,5.70
2023-04-14T10:10:37.818Z,6.10
2023-04-14T10:13:08.853Z,6.80
2023-04-14T10:15:39.827Z,5.60
2023-04-14T10:18:10.776Z,6.70
2023-04-14T10:20:42.095Z,4.90
2023-04-14T10:23:13.380Z,6.30
2023-04-14T10:25:45.512Z,5.50
2023-04-14T10:28:16.647Z,5.40
2023-04-14T10:30:48.388Z,5.90
2023-04-14T10:33:19.803Z,3.10
2023-04-14T10:35:54.649Z,6.70
2023-04-14T10:38:37.827Z,6.40
2023-04-14T10:41:08.893Z,4.30
2023-04-14T10:43:40.100Z,4.20
2023-04-14T10:46:11.879Z,5.70
2023-04-14T10:48:46.902Z,5.50
2023-04-14T10:51:21.558Z,4.80
2023-04-14T10:53:57.601Z,5.40
2023-04-14T10:56:29.577Z,4.40
2023-04-14T10:59:01.349Z,4.90
2023-04-14T11:01:33.355Z,5.60
2023-04-14T11:04:19.985Z,7.50
2023-04-14T11:06:55.783Z,5.60
2023-04-14T11:09:33.349Z,6.10
2023-04-14T11:12:24.469Z,5.80
2023-04-14T11:15:03.050Z,6.40
2023-04-14T11:17:38.846Z,5.20
2023-04-14T11:20:18.455Z,5.00
2023-04-14T11:22:51.279Z,3.10
2023-04-14T11:25:24.830Z,5.10
2023-04-14T11:30:25.233Z,4.20
2023-04-14T11:32:57.963Z,4.90
2023-04-14T11:35:29.872Z,5.10
2023-04-14T11:38:01.770Z,4.90
2023-04-14T11:40:36.032Z,7.20
2023-04-14T11:43:08.952Z,4.30
2023-04-14T11:45:45.228Z,5.70
2023-04-14T11:48:18.918Z,3.90
2023-04-14T11:50:51.013Z,3.90
2023-04-14T11:53:22.122Z,5.90
2023-04-14T11:55:54.074Z,7.40
2023-04-14T11:58:26.642Z,4.70
2023-04-14T12:00:58.762Z,6.10
2023-04-14T12:03:31.851Z,5.80
2023-04-14T12:06:03.933Z,5.80
2023-04-14T12:08:35.252Z,5.40
2023-04-14T12:11:16.625Z,5.60
2023-04-14T12:13:48.821Z,4.80
2023-04-14T12:16:20.253Z,4.30
2023-04-14T12:18:51.265Z,5.20
2023-04-14T12:21:22.693Z,5.20
2023-04-14T12:23:53.888Z,4.70
2023-04-14T12:26:26.861Z,6.80
2023-04-14T12:29:02.598Z,4.40
2023-04-14T12:31:34.756Z,4.00
2023-04-14T12:34:06.681Z,3.60
2023-04-14T12:36:50.109Z,5.50
2023-04-14T12:39:22.949Z,6.10
2023-04-14T12:41:53.844Z,5.50
2023-04-14T12:44:25.461Z,6.20
2023-04-14T12:46:56.458Z,4.50
2023-04-14T12:49:34.121Z,4.30
2023-04-14T12:52:06.015Z,4.60
2023-04-14T12:54:51.788Z,5.10
2023-04-14T12:57:23.989Z,3.70
2023-04-14T12:59:54.574Z,6.10
2023-04-14T13:02:26.220Z,4.40
2023-04-14T13:04:57.073Z,5.70
2023-04-14T13:07:27.815Z,5.70
2023-04-14T13:09:58.804Z,5.70
2023-04-14T13:12:29.606Z,4.80
2023-04-14T13:15:00.451Z,5.60
2023-04-14T13:17:31.262Z,3.90
2023-04-14T13:20:02.223Z,4.60
2023-04-14T13:22:32.858Z,4.10
2023-04-14T13:25:04.334Z,6.20
2023-04-14T13:27:35.143Z,6.70
2023-04-14T13:30:07.043Z,4.40
2023-04-14T13:32:37.889Z,4.20
2023-04-14T13:35:09.918Z,3.40
2023-04-14T13:37:41.416Z,5.90
2023-04-14T13:40:13.490Z,4.80
2023-04-14T13:42:44.183Z,5.30
2023-04-14T13:45:15.443Z,4.60
2023-04-14T13:47:49.112Z,4.20
2023-04-14T13:50:22.580Z,5.30
2023-04-14T13:52:53.351Z,4.10
2023-04-14T13:55:24.329Z,3.30
2023-04-14T13:57:55.307Z,7.20
2023-04-14T14:00:26.659Z,5.80
2023-04-14T14:02:57.753Z,5.20
2023-04-14T14:05:29.322Z,5.90
2023-04-14T14:08:00.267Z,6.00
2023-04-14T14:10:31.304Z,5.10
2023-04-14T14:13:02.879Z,5.50
2023-04-14T14:15:33.778Z,2.80
2023-04-14T14:18:04.897Z,5.90
2023-04-14T14:20:35.809Z,3.60
2023-04-14T14:23:06.609Z,5.00
2023-04-14T14:25:37.887Z,4.90
2023-04-14T14:28:08.640Z,4.20
2023-04-14T14:30:39.676Z,4.80
2023-04-14T14:33:10.721Z,3.70
2023-04-14T14:35:41.953Z,2.50
2023-04-14T14:38:13.010Z,4.60
2023-04-14T14:40:44.180Z,4.00
2023-04-14T14:43:14.781Z,3.70
2023-04-14T14:45:46.103Z,6.10
2023-04-14T14:48:16.994Z,18.30
2023-04-14T14:50:47.813Z,26.90
2023-04-14T14:53:19.043Z,22.80
2023-04-14T14:55:49.886Z,19.10
2023-04-14T14:58:20.706Z,15.80
2023-04-14T15:00:51.776Z,20.70
2023-04-14T15:03:22.782Z,21.80
2023-04-14T15:05:54.568Z,21.30
2023-04-14T15:08:25.540Z,19.10
2023-04-14T15:10:56.479Z,14.60
2023-04-14T15:13:27.721Z,15.80
2023-04-14T15:15:58.491Z,23.10
2023-04-14T15:18:29.959Z,15.00
2023-04-14T15:21:01.005Z,14.80
2023-04-14T15:23:35.510Z,16.40
2023-04-14T15:26:06.773Z,11.20
2023-04-14T15:28:37.405Z,12.90
2023-04-14T15:31:08.650Z,12.90
2023-04-14T15:33:39.453Z,19.00
2023-04-14T15:36:10.356Z,12.70
2023-04-14T15:38:42.642Z,11.50
2023-04-14T15:41:13.479Z,10.20
2023-04-14T15:43:44.304Z,11.70
2023-04-14T15:46:15.768Z,11.10
2023-04-14T15:48:46.800Z,12.90
2023-04-14T15:51:18.157Z,10.00
2023-04-14T15:53:48.831Z,9.50
2023-04-14T15:56:23.421Z,9.10
2023-04-14T15:58:54.509Z,12.30
2023-04-14T16:01:25.822Z,10.30
2023-04-14T16:03:56.830Z,11.50
2023-04-14T16:06:28.686Z,6.70
2023-04-14T16:09:00.158Z,8.70
2023-04-14T16:11:31.627Z,5.80
2023-04-14T16:14:03.266Z,8.60
2023-04-14T16:16:34.427Z,7.50
2023-04-14T16:19:05.326Z,6.10
2023-04-14T16:21:36.455Z,5.90
2023-04-14T16:24:07.881Z,10.60
2023-04-14T16:26:39.157Z,7.50
2023-04-14T16:29:10.926Z,12.90
2023-04-14T16:31:41.951Z,8.60
2023-04-14T16:34:12.752Z,11.20
2023-04-14T16:36:43.666Z,11.60
2023-04-14T16:39:14.775Z,9.40
2023-04-14T16:41:45.921Z,11.40
2023-04-14T16:44:16.676Z,7.60
2023-04-14T16:46:47.775Z,7.90
2023-04-14T16:49:18.563Z,10.10
2023-04-14T16:51:49.717Z,12.30
2023-04-14T16:54:20.916Z,7.80
2023-04-14T16:56:52.146Z,8.40
2023-04-14T16:59:23.094Z,10.10
2023-04-14T17:01:54.327Z,10.80
2023-04-14T17:04:25.505Z,8.30
2023-04-14T17:06:57.264Z,9.20
2023-04-14T17:09:28.606Z,9.60
2023-04-14T17:12:00.797Z,7.70
2023-04-14T17:14:31.618Z,7.30
2023-04-14T17:17:02.816Z,7.30
2023-04-14T17:19:34.422Z,6.30
2023-04-14T17:22:05.476Z,6.30
2023-04-14T17:24:36.723Z,6.50
2023-04-14T17:27:08.446Z,7.60
2023-04-14T17:29:39.923Z,8.10
2023-04-14T17:32:11.448Z,7.40
2023-04-14T17:34:42.650Z,5.80
2023-04-14T17:37:13.559Z,7.10
2023-04-14T17:39:44.750Z,8.00
2023-04-14T17:42:15.963Z,5.30
2023-04-14T17:44:47.134Z,6.50
2023-04-14T17:47:21.536Z,5.50
2023-04-14T17:49:52.951Z,7.50
2023-04-14T17:52:23.899Z,6.50
2023-04-14T17:54:56.051Z,4.80
2023-04-14T17:57:27.062Z,6.20
2023-04-14T17:59:59.876Z,6.80
2023-04-14T18:02:33.145Z,4.10
2023-04-14T18:05:04.093Z,4.00
2023-04-14T18:07:34.872Z,5.20
2023-04-14T18:10:06.454Z,5.20
2023-04-14T18:12:37.177Z,5.70
2023-04-14T18:15:12.102Z,4.70
2023-04-14T18:17:43.398Z,5.40
2023-04-14T18:20:15.998Z,3.70
2023-04-14T18:22:47.731Z,4.90
2023-04-14T18:25:20.276Z,6.10
2023-04-14T18:30:25.322Z,5.10
2023-04-14T18:32:56.110Z,4.20
2023-04-14T18:35:27.778Z,3.70
2023-04-14T18:37:58.623Z,4.40
2023-04-14T18:40:29.652Z,3.50
2023-04-14T18:43:01.747Z,4.40
2023-04-14T18:45:33.022Z,3.00
2023-04-14T18:48:04.965Z,4.60
2023-04-14T18:50:35.984Z,3.30
2023-04-14T18:53:06.841Z,3.20
2023-04-14T18:55:44.665Z,4.60
2023-04-14T18:58:17.436Z,4.00
2023-04-14T19:00:48.774Z,4.00
2023-04-14T19:03:19.889Z,6.70
2023-04-14T19:05:51.499Z,5.50
2023-04-14T19:08:22.524Z,4.90
2023-04-14T19:10:53.891Z,3.60
2023-04-14T19:13:25.353Z,4.30
2023-04-14T19:16:04.756Z,4.70
2023-04-14T19:18:36.153Z,5.00
2023-04-14T19:21:07.394Z,4.90
2023-04-14T19:23:40.171Z,3.20
2023-04-14T19:26:11.630Z,4.80
2023-04-14T19:28:42.659Z,3.20
2023-04-14T19:31:14.086Z,3.50
2023-04-14T19:33:45.239Z,3.70
2023-04-14T19:36:17.420Z,5.20
2023-04-14T19:38:48.884Z,3.60
2023-04-14T19:41:19.846Z,3.30
2023-04-14T19:43:52.201Z,4.20
2023-04-14T19:46:23.560Z,4.60
2023-04-14T19:48:54.809Z,3.60
2023-04-14T19:51:27.595Z,3.20
2023-04-14T19:53:58.622Z,3.10
2023-04-14T19:56:29.838Z,3.30
2023-04-14T19:59:00.661Z,4.10
2023-04-14T20:01:32.411Z,3.60
2023-04-14T20:04:08.396Z,4.60
2023-04-14T20:06:44.247Z,4.90
2023-04-14T20:09:15.022Z,3.40
2023-04-14T20:11:45.669Z,3.10
2023-04-14T20:14:16.969Z,3.60
2023-04-14T20:16:47.766Z,4.60
2023-04-14T20:19:18.561Z,4.00
2023-04-14T20:21:49.554Z,4.70
2023-04-14T20:24:20.386Z,3.10
2023-04-14T20:26:51.076Z,4.00
2023-04-14T20:29:23.330Z,3.80
2023-04-14T20:31:54.785Z,3.80
2023-04-14T20:34:26.650Z,4.30
2023-04-14T20:36:57.370Z,3.60
2023-04-14T20:39:28.324Z,4.40
2023-04-14T20:41:59.225Z,2.80
2023-04-14T20:44:30.725Z,3.80
2023-04-14T20:47:01.915Z,3.60
2023-04-14T20:49:32.688Z,3.10
2023-04-14T20:52:05.129Z,2.90
2023-04-14T20:54:36.578Z,2.70
2023-04-14T20:57:07.366Z,3.10
2023-04-14T20:59:38.553Z,3.20
2023-04-14T21:02:09.681Z,2.40
2023-04-14T21:04:40.679Z,4.30
2023-04-14T21:07:11.750Z,3.30
2023-04-14T21:09:43.030Z,3.20
2023-04-14T21:12:15.442Z,3.30
2023-04-14T21:15:44.549Z,3.90
2023-04-14T21:17:38.738Z,2.40
2023-04-14T21:20:12.058Z,3.40
2023-04-14T21:22:42.806Z,3.40
2023-04-14T21:25:14.171Z,2.60
2023-04-14T21:27:44.860Z,2.50
2023-04-14T21:30:15.735Z,3.60
2023-04-14T21:32:46.669Z,3.80
2023-04-14T21:35:17.749Z,3.20
2023-04-14T21:37:48.583Z,3.60
2023-04-14T21:40:19.487Z,2.70
2023-04-14T21:42:50.852Z,4.30
2023-04-14T21:45:22.260Z,3.40
2023-04-14T21:47:53.151Z,3.00
2023-04-14T21:50:24.599Z,2.60
2023-04-14T21:52:55.569Z,3.40
2023-04-14T21:55:26.675Z,3.60
2023-04-14T21:57:57.717Z,4.10
2023-04-14T22:00:28.472Z,3.60
2023-04-14T22:02:59.968Z,4.90
2023-04-14T22:05:30.961Z,3.00
2023-04-14T22:08:02.041Z,3.40
2023-04-14T22:10:33.153Z,3.20
2023-04-14T22:13:04.204Z,3.40
2023-04-14T22:15:35.338Z,3.20
2023-04-14T22:18:06.626Z,3.60
2023-04-14T22:20:37.658Z,3.40
2023-04-14T22:23:08.604Z,3.00
2023-04-14T22:25:39.424Z,3.50
2023-04-14T22:28:10.832Z,2.90
2023-04-14T22:30:41.495Z,2.80
2023-04-14T22:33:12.175Z,3.50
2023-04-14T22:35:42.875Z,2.60
2023-04-14T22:38:13.724Z,2.80
2023-04-14T22:40:44.604Z,3.00
2023-04-14T22:43:15.486Z,4.10
2023-04-14T22:45:46.559Z,3.40
2023-04-14T22:48:17.295Z,3.90
2023-04-14T22:50:48.023Z,4.30
2023-04-14T22:53:18.683Z,3.30
2023-04-14T22:55:49.724Z,3.60
2023-04-14T22:58:21.943Z,2.70
2023-04-14T23:00:52.675Z,3.50
2023-04-14T23:03:23.543Z,3.90
2023-04-14T23:05:55.168Z,2.90
2023-04-14T23:08:26.254Z,3.30
2023-04-14T23:10:57.592Z,4.00
2023-04-14T23:13:28.275Z,3.20
2023-04-14T23:15:59.041Z,3.10
2023-04-14T23:18:29.904Z,2.80
2023-04-14T23:21:00.759Z,4.00
2023-04-14T23:23:31.515Z,4.20
2023-04-14T23:26:02.131Z,5.00
2023-04-14T23:28:32.897Z,4.70
2023-04-14T23:31:03.869Z,4.50
2023-04-14T23:33:34.529Z,4.80
2023-04-14T23:36:06.138Z,4.60
2023-04-14T23:38:36.784Z,4.10
2023-04-14T23:41:07.849Z,3.90
2023-04-14T23:43:39.106Z,3.50
2023-04-14T23:46:09.893Z,4.30
2023-04-14T23:48:40.750Z,4.10
2023-04-14T23:51:18.358Z,3.80
2023-04-14T23:53:49.890Z,4.60
2023-04-14T23:56:21.235Z,4.40
2023-04-14T23:58:53.221Z,3.30
